createdAt,value
2023-04-18T00:00:46.986Z,45.12
2023-04-18T00:03:17.512Z,45.50
2023-04-18T00:05:49.820Z,45.33
2023-04-18T00:08:23.369Z,45.29
2023-04-18T00:10:53.116Z,45.48
2023-04-18T00:13:25.195Z,45.59
2023-04-18T00:15:58.479Z,45.52
2023-04-18T00:18:28.804Z,44.89
2023-04-18T00:20:58.501Z,45.50
2023-04-18T00:23:29.821Z,45.74
2023-04-18T00:26:02.422Z,45.48
2023-04-18T00:28:34.918Z,45.49
2023-04-18T00:31:04.750Z,45.43
2023-04-18T00:33:34.385Z,45.57
2023-04-18T00:36:04.058Z,45.23
2023-04-18T00:38:33.813Z,45.40
2023-04-18T00:41:03.801Z,45.41
2023-04-18T00:43:38.537Z,45.74
2023-04-18T00:46:15.459Z,45.59
2023-04-18T00:48:45.164Z,45.72
2023-04-18T00:51:17.802Z,45.88
2023-04-18T00:53:47.736Z,45.90
2023-04-18T00:56:20.596Z,45.74
2023-04-18T00:58:53.298Z,46.04
2023-04-18T01:01:25.682Z,46.06
2023-04-18T01:04:00.935Z,45.93
2023-04-18T01:06:37.216Z,45.99
2023-04-18T01:09:09.877Z,45.93
2023-04-18T01:11:39.557Z,45.80
2023-04-18T01:14:10.402Z,46.28
2023-04-18T01:16:40.552Z,46.37
2023-04-18T01:19:13.099Z,46.06
2023-04-18T01:21:45.365Z,45.96
2023-04-18T01:24:22.913Z,46.14
2023-04-18T01:26:52.722Z,46.09
2023-04-18T01:29:24.157Z,46.21
2023-04-18T01:31:56.713Z,46.30
2023-04-18T01:34:26.506Z,45.90
2023-04-18T01:36:59.282Z,46.37
2023-04-18T01:39:28.974Z,46.08
2023-04-18T01:42:02.884Z,45.98
2023-04-18T01:44:32.592Z,46.10
2023-04-18T01:47:02.530Z,46.38
2023-04-18T01:49:34.510Z,46.17
2023-04-18T01:52:04.266Z,46.37
2023-04-18T01:54:33.973Z,46.32
2023-04-18T01:57:06.394Z,46.46
2023-04-18T01:59:36.097Z,46.06
2023-04-18T02:02:05.869Z,46.40
2023-04-18T02:04:35.623Z,46.23
2023-04-18T02:07:06.228Z,46.40
2023-04-18T02:09:35.846Z,46.14
2023-04-18T02:12:05.852Z,46.06
2023-04-18T02:14:39.140Z,46.32
2023-04-18T02:17:09.232Z,46.18
2023-04-18T02:19:38.912Z,46.36
2023-04-18T02:22:08.579Z,46.20
2023-04-18T02:24:40.595Z,46.20
2023-04-18T02:27:10.533Z,46.75
2023-04-18T02:29:40.361Z,46.82
2023-04-18T02:32:10.603Z,46.81
2023-04-18T02:34:40.918Z,46.35
2023-04-18T02:37:10.536Z,46.51
2023-04-18T02:39:45.047Z,46.47
2023-04-18T02:42:14.099Z,46.57
2023-04-18T02:44:47.746Z,46.43
2023-04-18T02:47:17.348Z,46.35
2023-04-18T02:52:30.054Z,46.65
2023-04-18T02:55:05.639Z,46.57
2023-04-18T02:57:41.153Z,46.71
2023-04-18T03:00:11.362Z,46.62
2023-04-18T03:02:41.134Z,46.50
2023-04-18T03:05:13.954Z,47.25
2023-04-18T03:07:45.656Z,47.08
2023-04-18T03:10:18.034Z,46.78
2023-04-18T03:12:49.177Z,47.08
2023-04-18T03:15:18.790Z,46.86
2023-04-18T03:17:48.457Z,47.08
2023-04-18T03:20:18.141Z,47.02
2023-04-18T03:22:47.795Z,46.71
2023-04-18T03:25:20.443Z,47.27
2023-04-18T03:27:50.169Z,47.69
2023-04-18T03:30:20.127Z,47.58
2023-04-18T03:32:50.551Z,47.08
2023-04-18T03:35:23.052Z,47.15
2023-04-18T03:37:52.738Z,47.76
2023-04-18T03:40:22.535Z,47.51
2023-04-18T03:42:54.186Z,46.75
2023-04-18T03:45:23.953Z,47.40
2023-04-18T03:47:56.824Z,47.12
2023-04-18T03:50:27.337Z,46.95
2023-04-18T03:53:00.224Z,47.33
2023-04-18T03:55:29.954Z,47.23
2023-04-18T03:58:03.039Z,47.74
2023-04-18T04:00:35.217Z,47.51
2023-04-18T04:03:13.742Z,48.02
2023-04-18T04:05:43.543Z,47.01
2023-04-18T04:08:16.109Z,47.03
2023-04-18T04:10:45.815Z,46.98
2023-04-18T04:13:17.850Z,46.92
2023-04-18T04:15:50.335Z,47.04
2023-04-18T04:18:22.628Z,46.73
2023-04-18T04:20:52.434Z,46.77
2023-04-18T04:23:22.127Z,46.74
2023-04-18T04:25:51.774Z,46.74
2023-04-18T04:28:26.063Z,46.76
2023-04-18T04:30:57.000Z,46.80
2023-04-18T04:33:30.276Z,46.62
2023-04-18T04:35:59.915Z,46.23
2023-04-18T04:38:32.716Z,46.01
2023-04-18T04:41:05.387Z,46.07
2023-04-18T04:43:38.464Z,46.58
2023-04-18T04:46:11.453Z,46.14
2023-04-18T04:48:41.185Z,46.25
2023-04-18T04:51:13.736Z,46.06
2023-04-18T04:53:43.558Z,46.31
2023-04-18T04:56:14.226Z,45.90
2023-04-18T04:58:44.013Z,46.27
2023-04-18T05:01:14.499Z,46.47
2023-04-18T05:03:47.401Z,46.27
2023-04-18T05:06:22.165Z,46.15
2023-04-18T05:08:55.312Z,46.71
2023-04-18T05:11:28.059Z,46.53
2023-04-18T05:13:57.600Z,46.84
2023-04-18T05:16:27.337Z,47.12
2023-04-18T05:18:57.083Z,47.15
2023-04-18T05:21:30.327Z,46.62
2023-04-18T05:24:05.774Z,46.05
2023-04-18T05:26:45.418Z,46.87
2023-04-18T05:29:15.581Z,46.24
2023-04-18T05:31:56.521Z,47.14
2023-04-18T05:34:29.702Z,47.84
2023-04-18T05:36:59.514Z,48.39
2023-04-18T05:39:32.188Z,48.19
2023-04-18T05:42:09.776Z,46.35
2023-04-18T05:44:42.363Z,47.03
2023-04-18T05:47:16.950Z,47.01
2023-04-18T05:49:49.669Z,47.17
2023-04-18T05:52:28.012Z,46.85
2023-04-18T05:54:58.190Z,47.39
2023-04-18T05:57:27.997Z,47.10
2023-04-18T05:59:59.850Z,46.68
2023-04-18T06:02:32.633Z,46.96
2023-04-18T06:05:03.000Z,46.58
2023-04-18T06:07:35.901Z,47.31
2023-04-18T06:10:07.305Z,47.53
2023-04-18T06:12:41.352Z,47.16
2023-04-18T06:15:14.723Z,46.44
2023-04-18T06:17:48.763Z,45.63
2023-04-18T06:20:18.554Z,45.03
2023-04-18T06:22:51.014Z,45.30
2023-04-18T06:25:20.725Z,46.03
2023-04-18T06:27:50.574Z,45.96
2023-04-18T06:30:23.322Z,45.39
2023-04-18T06:32:53.079Z,45.22
2023-04-18T06:35:24.557Z,45.17
2023-04-18T06:37:55.626Z,45.26
2023-04-18T06:40:25.237Z,45.61
2023-04-18T06:43:00.556Z,45.95
2023-04-18T06:45:34.807Z,45.49
2023-04-18T06:48:10.205Z,46.09
2023-04-18T06:50:39.943Z,46.15
2023-04-18T06:53:12.274Z,46.22
2023-04-18T06:55:50.678Z,46.62
2023-04-18T06:58:23.052Z,46.51
2023-04-18T07:00:56.041Z,46.60
2023-04-18T07:03:25.775Z,46.58
2023-04-18T07:05:58.398Z,46.75
2023-04-18T07:08:28.098Z,46.77
2023-04-18T07:10:57.725Z,46.62
2023-04-18T07:13:32.800Z,46.62
2023-04-18T07:16:03.034Z,45.88
2023-04-18T07:18:38.086Z,46.55
2023-04-18T07:21:08.930Z,46.59
2023-04-18T07:23:48.872Z,46.74
2023-04-18T07:26:18.576Z,46.32
2023-04-18T07:28:48.209Z,46.68
2023-04-18T07:31:18.028Z,46.68
2023-04-18T07:33:50.621Z,46.50
2023-04-18T07:36:20.562Z,46.78
2023-04-18T07:38:50.365Z,47.12
2023-04-18T07:41:19.983Z,46.95
2023-04-18T07:43:49.643Z,46.79
2023-04-18T07:46:19.390Z,47.04
2023-04-18T07:48:49.119Z,47.04
2023-04-18T07:51:18.820Z,47.07
2023-04-18T07:53:48.423Z,47.26
2023-04-18T07:56:18.269Z,47.01
2023-04-18T07:58:50.950Z,47.23
2023-04-18T08:01:25.119Z,47.35
2023-04-18T08:03:58.985Z,46.65
2023-04-18T08:06:31.750Z,46.12
2023-04-18T08:09:04.684Z,45.85
2023-04-18T08:11:40.703Z,45.44
2023-04-18T08:14:13.408Z,45.81
2023-04-18T08:16:45.692Z,46.47
2023-04-18T08:19:18.258Z,46.33
2023-04-18T08:21:47.971Z,46.43
2023-04-18T08:24:17.593Z,46.25
2023-04-18T08:26:47.292Z,46.60
2023-04-18T08:29:16.975Z,46.48
2023-04-18T08:31:46.646Z,46.43
2023-04-18T08:34:19.534Z,46.24
2023-04-18T08:36:49.205Z,46.36
2023-04-18T08:39:19.144Z,46.67
2023-04-18T08:41:56.084Z,46.18
2023-04-18T08:44:25.666Z,46.33
2023-04-18T08:46:58.948Z,46.51
2023-04-18T08:49:40.587Z,46.17
2023-04-18T08:52:15.480Z,46.27
2023-04-18T08:54:45.987Z,46.01
2023-04-18T08:57:31.626Z,46.33
2023-04-18T09:00:04.178Z,45.97
2023-04-18T09:02:43.839Z,46.28
2023-04-18T09:05:21.354Z,46.16
2023-04-18T09:07:53.808Z,46.16
2023-04-18T09:10:36.965Z,45.98
2023-04-18T09:13:07.125Z,46.08
2023-04-18T09:15:36.775Z,46.32
2023-04-18T09:18:12.459Z,46.24
2023-04-18T09:20:43.708Z,46.21
2023-04-18T09:23:27.010Z,46.38
2023-04-18T09:25:56.933Z,46.22
2023-04-18T09:28:33.326Z,46.35
2023-04-18T09:31:16.073Z,46.45
2023-04-18T09:33:58.218Z,46.48
2023-04-18T09:36:29.410Z,46.38
2023-04-18T09:38:59.094Z,46.62
2023-04-18T09:41:29.082Z,46.29
2023-04-18T09:44:17.702Z,46.45
2023-04-18T09:46:47.914Z,46.56
2023-04-18T09:49:18.361Z,46.41
2023-04-18T09:51:48.821Z,46.53
2023-04-18T09:54:25.062Z,46.50
2023-04-18T09:56:58.190Z,46.64
2023-04-18T09:59:35.960Z,46.43
2023-04-18T10:02:08.436Z,46.64
2023-04-18T10:04:38.599Z,46.66
2023-04-18T10:07:17.516Z,46.52
2023-04-18T10:09:48.799Z,46.54
2023-04-18T10:12:20.039Z,46.62
2023-04-18T10:14:50.027Z,46.71
2023-04-18T10:17:23.188Z,46.66
2023-04-18T10:20:18.618Z,46.51
2023-04-18T10:22:52.069Z,46.71
2023-04-18T10:25:43.140Z,46.40
2023-04-18T10:28:13.799Z,46.60
2023-04-18T10:30:43.400Z,46.60
2023-04-18T10:33:42.518Z,46.58
2023-04-18T10:36:13.895Z,46.87
2023-04-18T10:38:54.732Z,46.85
2023-04-18T10:41:27.468Z,46.65
2023-04-18T10:44:09.227Z,46.64
2023-04-18T10:46:46.022Z,46.83
2023-04-18T10:49:25.450Z,46.68
2023-04-18T10:52:01.095Z,46.75
2023-04-18T10:54:55.987Z,46.86
2023-04-18T10:57:29.125Z,46.91
2023-04-18T10:59:59.284Z,46.69
2023-04-18T11:02:31.660Z,46.55
2023-04-18T11:05:09.066Z,46.71
2023-04-18T11:07:42.703Z,46.96
2023-04-18T11:10:12.563Z,46.65
2023-04-18T11:12:43.337Z,46.53
2023-04-18T11:15:24.016Z,46.64
2023-04-18T11:18:11.122Z,46.92
2023-04-18T11:20:45.382Z,46.75
2023-04-18T11:23:24.306Z,46.44
2023-04-18T11:26:00.700Z,46.76
2023-04-18T11:28:34.460Z,46.56
2023-04-18T11:31:10.102Z,46.84
2023-04-18T11:33:39.765Z,46.69
2023-04-18T11:36:09.934Z,46.94
2023-04-18T11:38:43.032Z,46.92
2023-04-18T11:41:18.862Z,46.93
2023-04-18T11:43:49.156Z,46.67
2023-04-18T11:46:18.825Z,46.97
2023-04-18T11:48:49.298Z,46.99
2023-04-18T11:51:39.816Z,46.83
2023-04-18T11:54:58.172Z,47.03
2023-04-18T11:57:36.744Z,46.85
2023-04-18T12:00:11.866Z,46.75
2023-04-18T12:02:46.343Z,46.96
2023-04-18T12:05:30.843Z,46.77
2023-04-18T12:08:21.286Z,46.83
2023-04-18T12:10:55.057Z,46.74
2023-04-18T12:13:29.494Z,46.63
2023-04-18T12:15:59.677Z,47.05
2023-04-18T12:18:31.332Z,46.89
2023-04-18T12:21:06.275Z,46.82
2023-04-18T12:23:37.268Z,46.70
2023-04-18T12:26:25.236Z,47.07
2023-04-18T12:28:58.162Z,46.81
2023-04-18T12:31:30.849Z,46.66
2023-04-18T12:34:04.636Z,46.79
2023-04-18T12:36:34.395Z,47.03
2023-04-18T12:39:07.187Z,46.87
2023-04-18T12:41:36.945Z,46.77
2023-04-18T12:44:09.837Z,46.65
2023-04-18T12:46:39.528Z,46.88
2023-04-18T12:49:09.224Z,46.81
2023-04-18T12:51:39.004Z,46.54
2023-04-18T12:54:08.692Z,46.60
2023-04-18T12:56:38.334Z,46.88
2023-04-18T12:59:07.996Z,47.03
2023-04-18T13:01:37.763Z,46.74
2023-04-18T13:04:12.618Z,46.63
2023-04-18T13:06:43.202Z,46.91
2023-04-18T13:09:12.986Z,46.82
2023-04-18T13:11:42.765Z,46.89
2023-04-18T13:14:12.600Z,46.70
2023-04-18T13:16:43.866Z,46.67
2023-04-18T13:19:13.993Z,46.76
2023-04-18T13:21:43.857Z,46.95
2023-04-18T13:24:16.229Z,46.85
2023-04-18T13:26:45.883Z,46.84
2023-04-18T13:29:18.588Z,46.64
2023-04-18T13:31:48.318Z,46.58
2023-04-18T13:34:23.424Z,46.77
2023-04-18T13:36:53.007Z,46.74
2023-04-18T13:39:23.128Z,46.82
2023-04-18T13:41:53.033Z,46.81
2023-04-18T13:44:22.846Z,46.84
2023-04-18T13:46:52.785Z,46.73
2023-04-18T13:49:22.751Z,46.98
2023-04-18T13:51:54.913Z,46.78
2023-04-18T13:54:24.980Z,46.76
2023-04-18T13:57:02.020Z,47.02
2023-04-18T13:59:33.571Z,46.81
2023-04-18T14:02:03.296Z,46.82
2023-04-18T14:04:34.350Z,46.84
2023-04-18T14:07:07.824Z,46.94
2023-04-18T14:09:37.673Z,46.82
2023-04-18T14:12:07.760Z,46.89
2023-04-18T14:14:37.698Z,46.95
2023-04-18T14:17:08.051Z,46.87
2023-04-18T14:19:37.732Z,46.88
2023-04-18T14:22:08.775Z,46.84
2023-04-18T14:24:38.841Z,46.98
2023-04-18T14:27:09.667Z,47.01
2023-04-18T14:29:39.257Z,46.93
2023-04-18T14:32:09.253Z,47.08
2023-04-18T14:34:42.021Z,46.66
2023-04-18T14:37:15.638Z,46.77
2023-04-18T14:39:49.457Z,46.97
2023-04-18T14:42:19.387Z,47.11
2023-04-18T14:44:51.973Z,46.85
2023-04-18T14:47:22.021Z,46.80
2023-04-18T14:49:55.590Z,46.95
2023-04-18T14:52:25.289Z,46.90
2023-04-18T14:54:54.870Z,46.88
2023-04-18T14:57:33.244Z,46.86
2023-04-18T15:00:05.636Z,46.87
2023-04-18T15:02:38.720Z,47.13
2023-04-18T15:05:09.601Z,46.78
2023-04-18T15:07:39.556Z,46.94
2023-04-18T15:10:12.993Z,46.92
2023-04-18T15:12:44.057Z,46.72
2023-04-18T15:15:13.894Z,46.73
2023-04-18T15:17:43.785Z,47.13
2023-04-18T15:20:15.820Z,47.04
2023-04-18T15:22:48.142Z,46.91
2023-04-18T15:25:18.618Z,46.91
2023-04-18T15:27:48.274Z,47.13
2023-04-18T15:30:18.036Z,46.98
2023-04-18T15:32:47.692Z,47.10
2023-04-18T15:35:19.434Z,46.86
2023-04-18T15:37:49.178Z,46.91
2023-04-18T15:40:19.836Z,47.13
2023-04-18T15:42:51.146Z,46.97
2023-04-18T15:45:20.901Z,47.00
2023-04-18T15:47:50.736Z,46.75
2023-04-18T15:50:23.634Z,46.84
2023-04-18T15:52:58.822Z,47.13
2023-04-18T15:55:28.538Z,46.60
2023-04-18T15:57:58.284Z,46.76
2023-04-18T16:00:28.989Z,46.75
2023-04-18T16:02:58.805Z,46.82
2023-04-18T16:05:28.544Z,46.76
2023-04-18T16:07:59.227Z,47.08
2023-04-18T16:10:28.943Z,46.84
2023-04-18T16:13:01.588Z,46.72
2023-04-18T16:15:33.389Z,46.83
2023-04-18T16:18:03.528Z,46.78
2023-04-18T16:20:34.973Z,46.88
2023-04-18T16:23:07.535Z,46.65
2023-04-18T16:25:42.647Z,46.88
2023-04-18T16:28:12.373Z,46.84
2023-04-18T16:30:45.327Z,46.81
2023-04-18T16:33:15.237Z,46.72
2023-04-18T16:35:44.979Z,46.69
2023-04-18T16:38:16.531Z,46.70
2023-04-18T16:40:48.341Z,46.93
2023-04-18T16:43:18.068Z,46.82
2023-04-18T16:45:52.761Z,46.96
2023-04-18T16:48:28.065Z,47.01
2023-04-18T16:50:58.493Z,46.76
2023-04-18T16:53:31.114Z,46.76
2023-04-18T16:56:04.774Z,46.87
2023-04-18T16:58:34.481Z,46.65
2023-04-18T17:01:04.587Z,46.72
2023-04-18T17:03:34.453Z,46.66
2023-04-18T17:06:04.238Z,46.75
2023-04-18T17:08:38.037Z,46.80
2023-04-18T17:11:07.839Z,47.02
2023-04-18T17:13:40.311Z,46.80
2023-04-18T17:16:15.429Z,46.58
2023-04-18T17:18:45.154Z,46.60
2023-04-18T17:21:14.893Z,46.68
2023-04-18T17:23:50.119Z,46.51
2023-04-18T17:26:20.414Z,46.40
2023-04-18T17:28:50.160Z,46.38
2023-04-18T17:31:19.898Z,46.51
2023-04-18T17:33:52.131Z,46.45
2023-04-18T17:36:30.775Z,46.21
2023-04-18T17:39:07.033Z,46.26
2023-04-18T17:41:42.922Z,46.55
2023-04-18T17:44:12.628Z,46.50
2023-04-18T17:46:42.516Z,46.53
2023-04-18T17:49:13.070Z,46.12
2023-04-18T17:51:47.728Z,46.31
2023-04-18T17:54:21.708Z,46.29
2023-04-18T17:56:54.126Z,46.24
2023-04-18T17:59:25.794Z,46.31
2023-04-18T18:01:55.650Z,46.28
2023-04-18T18:04:26.610Z,46.47
2023-04-18T18:06:57.855Z,46.23
2023-04-18T18:09:27.509Z,46.17
2023-04-18T18:12:00.345Z,46.24
2023-04-18T18:14:29.996Z,46.47
2023-04-18T18:17:04.580Z,46.69
2023-04-18T18:19:34.288Z,46.23
2023-04-18T18:22:03.953Z,46.36
2023-04-18T18:24:33.628Z,46.33
2023-04-18T18:27:03.360Z,46.43
2023-04-18T18:29:33.094Z,46.56
2023-04-18T18:32:05.238Z,46.81
2023-04-18T18:34:34.885Z,46.52
2023-04-18T18:37:11.069Z,46.46
2023-04-18T18:39:43.999Z,46.70
2023-04-18T18:42:13.660Z,46.59
2023-04-18T18:44:43.257Z,46.68
2023-04-18T18:47:12.889Z,46.56
2023-04-18T18:49:42.610Z,46.55
2023-04-18T18:52:15.288Z,46.66
2023-04-18T18:54:44.929Z,46.77
2023-04-18T18:57:14.603Z,46.42
2023-04-18T18:59:44.926Z,46.63
2023-04-18T19:02:14.691Z,46.78
2023-04-18T19:04:47.859Z,46.67
2023-04-18T19:07:17.555Z,46.85
2023-04-18T19:09:50.734Z,46.62
2023-04-18T19:12:20.397Z,46.78
2023-04-18T19:14:56.963Z,46.80
2023-04-18T19:17:27.191Z,47.01
2023-04-18T19:20:00.802Z,47.03
2023-04-18T19:22:35.929Z,46.85
2023-04-18T19:25:08.021Z,46.74
2023-04-18T19:27:37.855Z,46.96
2023-04-18T19:30:08.284Z,47.00
2023-04-18T19:32:38.578Z,46.99
2023-04-18T19:35:08.667Z,47.06
2023-04-18T19:37:38.480Z,46.77
2023-04-18T19:40:10.779Z,46.94
2023-04-18T19:42:40.421Z,47.03
2023-04-18T19:45:10.548Z,46.75
2023-04-18T19:47:40.285Z,46.83
2023-04-18T19:50:10.769Z,46.77
2023-04-18T19:52:40.468Z,46.92
2023-04-18T19:55:10.587Z,46.86
2023-04-18T19:57:41.536Z,47.13
2023-04-18T20:00:13.710Z,47.21
2023-04-18T20:02:44.219Z,47.24
2023-04-18T20:05:16.850Z,47.00
2023-04-18T20:07:46.832Z,47.34
2023-04-18T20:10:16.607Z,47.21
2023-04-18T20:12:47.294Z,47.40
2023-04-18T20:15:17.994Z,47.13
2023-04-18T20:17:47.830Z,47.48
2023-04-18T20:20:21.901Z,47.25
2023-04-18T20:22:51.605Z,47.36
2023-04-18T20:25:21.216Z,47.17
2023-04-18T20:27:50.869Z,47.34
2023-04-18T20:30:20.492Z,47.25
2023-04-18T20:32:50.113Z,47.16
2023-04-18T20:35:21.400Z,47.28
2023-04-18T20:37:51.381Z,47.40
2023-04-18T20:43:08.410Z,47.46
2023-04-18T20:45:39.108Z,47.24
2023-04-18T20:48:09.035Z,47.48
2023-04-18T20:50:38.689Z,47.50
2023-04-18T20:53:08.660Z,47.28
2023-04-18T20:55:38.487Z,47.53
2023-04-18T20:58:08.066Z,47.46
2023-04-18T21:00:37.663Z,47.57
2023-04-18T21:03:09.584Z,47.56
2023-04-18T21:05:39.514Z,47.52
2023-04-18T21:08:09.256Z,47.70
2023-04-18T21:10:38.947Z,47.80
2023-04-18T21:13:14.029Z,48.01
2023-04-18T21:15:44.278Z,51.79
2023-04-18T21:18:16.597Z,52.15
2023-04-18T21:20:46.328Z,52.00
2023-04-18T21:23:18.911Z,51.56
2023-04-18T21:25:48.696Z,51.35
2023-04-18T21:28:20.440Z,51.54
2023-04-18T21:30:53.157Z,51.73
2023-04-18T21:33:22.867Z,51.14
2023-04-18T21:35:52.553Z,50.66
2023-04-18T21:38:26.788Z,50.18
2023-04-18T21:41:05.502Z,49.58
2023-04-18T21:43:40.765Z,49.75
2023-04-18T21:46:19.758Z,50.35
2023-04-18T21:48:53.356Z,51.01
2023-04-18T21:51:22.981Z,51.49
2023-04-18T21:53:55.255Z,51.84
2023-04-18T21:56:24.873Z,51.01
2023-04-18T21:58:54.983Z,50.69
2023-04-18T22:01:24.689Z,50.63
2023-04-18T22:03:54.479Z,51.29
2023-04-18T22:06:27.321Z,50.52
2023-04-18T22:08:57.827Z,50.55
2023-04-18T22:11:27.544Z,50.60
2023-04-18T22:13:59.493Z,50.35
2023-04-18T22:16:31.312Z,50.27
2023-04-18T22:19:02.693Z,50.30
2023-04-18T22:21:35.725Z,50.49
2023-04-18T22:24:05.687Z,50.41
2023-04-18T22:26:35.449Z,50.32
2023-04-18T22:29:05.232Z,50.09
2023-04-18T22:31:38.092Z,50.29
2023-04-18T22:34:07.699Z,50.33
2023-04-18T22:36:37.559Z,50.04
2023-04-18T22:39:10.372Z,50.50
2023-04-18T22:41:43.291Z,50.36
2023-04-18T22:44:13.115Z,50.08
2023-04-18T22:46:42.976Z,50.36
2023-04-18T22:49:14.595Z,49.65
2023-04-18T22:51:45.519Z,50.14
2023-04-18T22:54:18.020Z,49.58
2023-04-18T22:56:47.686Z,50.10
2023-04-18T22:59:19.904Z,49.51
2023-04-18T23:01:52.339Z,49.80
2023-04-18T23:04:22.043Z,49.49
2023-04-18T23:06:51.894Z,49.29
2023-04-18T23:09:21.492Z,48.71
2023-04-18T23:11:54.139Z,49.55
2023-04-18T23:14:25.979Z,49.17
2023-04-18T23:16:55.722Z,48.86
2023-04-18T23:19:30.891Z,48.83
2023-04-18T23:22:00.716Z,49.18
2023-04-18T23:24:30.499Z,49.04
2023-04-18T23:27:00.136Z,49.17
2023-04-18T23:29:29.714Z,49.40
2023-04-18T23:31:59.313Z,48.93
2023-04-18T23:34:29.000Z,49.31
2023-04-18T23:36:58.667Z,49.53
2023-04-18T23:39:34.387Z,49.31
2023-04-18T23:42:04.124Z,49.27
2023-04-18T23:44:33.973Z,49.36
2023-04-18T23:47:06.154Z,49.57
2023-04-18T23:49:35.909Z,49.64
2023-04-18T23:52:08.852Z,50.13
2023-04-18T23:54:41.467Z,50.10
2023-04-18T23:57:11.134Z,50.47
2023-04-18T23:59:40.751Z,50.23
